Mansfield, United Kingdom
Current Conditions -  °F | °C
As of 12:50 AM on Thursday 18 Dec 2014 (Local Time) from EGCN Reporting Station
Clear Clear  
Wind Chill: 55°   Ceiling: Unl
Heat Index: 55°   Visibility: 6mi
Dew Point: 52°   Wind: 16mph
Humidity: 88%   Direction: 240°WSW
Pressure: 29.68"   Gusts: NA
Location:  53.18°N, 1.18°W
Report Text: EGCN 180050Z 24014KT CAVOK 13/11 Q1005
Loading
Personal Weather Stations






























Interactive Weather Map New forecast layout! Learn more

10-Day Weather Forecast

Advertisements
Track Severe Weather on mobile